createdAt,value
2018-08-13T00:00:58.788Z,1.30
2018-08-13T00:03:27.225Z,1.43
2018-08-13T00:05:55.670Z,1.50
2018-08-13T00:08:24.125Z,1.63
2018-08-13T00:10:52.542Z,1.30
2018-08-13T00:13:21.074Z,1.53
2018-08-13T00:15:49.529Z,1.43
2018-08-13T00:18:17.992Z,1.70
2018-08-13T00:20:46.441Z,1.60
2018-08-13T00:23:14.988Z,1.33
2018-08-13T00:25:43.392Z,1.40
2018-08-13T00:28:11.839Z,1.70
2018-08-13T00:30:40.598Z,1.70
2018-08-13T00:33:10.378Z,1.70
2018-08-13T00:35:39.016Z,1.30
2018-08-13T00:38:07.741Z,1.60
2018-08-13T00:40:36.238Z,1.70
2018-08-13T00:43:04.789Z,1.70
2018-08-13T00:45:33.227Z,1.57
2018-08-13T00:48:01.713Z,1.80
2018-08-13T00:50:30.135Z,1.50
2018-08-13T00:52:58.586Z,1.53
2018-08-13T00:55:27.025Z,1.23
2018-08-13T00:57:55.498Z,1.30
2018-08-13T01:00:23.961Z,1.30
2018-08-13T01:02:52.557Z,1.43
2018-08-13T01:05:21.480Z,1.23
2018-08-13T01:07:49.986Z,1.60
2018-08-13T01:10:20.537Z,1.20
2018-08-13T01:12:49.011Z,1.47
2018-08-13T01:15:18.524Z,1.33
2018-08-13T01:17:48.213Z,1.40
2018-08-13T01:20:18.722Z,1.10
2018-08-13T01:22:47.227Z,1.40
2018-08-13T01:25:16.920Z,1.33
2018-08-13T01:27:45.810Z,1.50
2018-08-13T01:30:15.730Z,1.40
2018-08-13T01:32:44.142Z,1.70
2018-08-13T01:35:12.644Z,1.30
2018-08-13T01:37:41.076Z,1.13
2018-08-13T01:40:10.665Z,1.50
2018-08-13T01:42:39.158Z,1.43
2018-08-13T01:45:10.185Z,1.53
2018-08-13T01:47:38.614Z,1.80
2018-08-13T01:50:08.733Z,1.50
2018-08-13T01:52:37.161Z,1.33
2018-08-13T01:55:06.802Z,1.60
2018-08-13T01:57:35.194Z,1.50
2018-08-13T02:00:04.842Z,1.53
2018-08-13T02:02:33.325Z,1.20
2018-08-13T02:05:01.718Z,1.20
2018-08-13T02:07:30.224Z,1.30
2018-08-13T02:09:58.656Z,1.47
2018-08-13T02:12:27.132Z,1.50
2018-08-13T02:14:55.580Z,1.47
2018-08-13T02:17:24.092Z,1.67
2018-08-13T02:19:52.560Z,1.47
2018-08-13T02:22:21.012Z,1.57
2018-08-13T02:24:49.468Z,1.40
2018-08-13T02:27:17.898Z,1.40
2018-08-13T02:29:46.298Z,1.50
2018-08-13T02:32:14.737Z,1.53
2018-08-13T02:34:43.167Z,1.67
2018-08-13T02:37:11.587Z,1.63
2018-08-13T02:39:39.993Z,1.50
2018-08-13T02:42:08.435Z,1.53
2018-08-13T02:44:36.917Z,1.57
2018-08-13T02:47:05.636Z,1.33
2018-08-13T02:49:34.080Z,1.30
2018-08-13T02:52:02.903Z,1.70
2018-08-13T02:54:31.349Z,1.83
2018-08-13T02:56:59.803Z,1.80
2018-08-13T02:59:28.217Z,1.70
2018-08-13T03:01:56.663Z,1.80
2018-08-13T03:04:25.127Z,1.70
2018-08-13T03:06:53.577Z,1.50
2018-08-13T03:09:22.012Z,1.77
2018-08-13T03:11:50.498Z,1.57
2018-08-13T03:14:18.923Z,1.57
2018-08-13T03:16:47.392Z,1.50
2018-08-13T03:19:15.841Z,2.20
2018-08-13T03:21:44.288Z,1.70
2018-08-13T03:24:12.715Z,1.47
2018-08-13T03:26:41.135Z,1.73
2018-08-13T03:29:09.588Z,1.97
2018-08-13T03:31:38.038Z,1.73
2018-08-13T03:34:06.536Z,1.93
2018-08-13T03:36:35.026Z,1.50
2018-08-13T03:39:04.708Z,1.87
2018-08-13T03:41:33.121Z,1.50
2018-08-13T03:44:01.512Z,1.60
2018-08-13T03:46:29.997Z,1.83
2018-08-13T03:48:58.419Z,1.70
2018-08-13T03:51:26.878Z,1.50
2018-08-13T03:53:55.365Z,1.57
2018-08-13T03:56:23.780Z,1.40
2018-08-13T03:58:52.188Z,2.00
2018-08-13T04:01:20.628Z,2.00
2018-08-13T04:03:49.020Z,1.67
2018-08-13T04:06:17.537Z,1.70
2018-08-13T04:08:46.000Z,1.60
2018-08-13T04:11:14.408Z,1.67
2018-08-13T04:13:42.847Z,2.00
2018-08-13T04:16:11.339Z,1.77
2018-08-13T04:18:39.780Z,2.00
2018-08-13T04:21:08.218Z,2.03
2018-08-13T04:23:36.686Z,1.73
2018-08-13T04:26:05.160Z,1.70
2018-08-13T04:28:33.598Z,1.80
2018-08-13T04:31:01.994Z,1.73
2018-08-13T04:33:30.518Z,2.00
2018-08-13T04:35:58.931Z,1.67
2018-08-13T04:38:27.413Z,1.80
2018-08-13T04:40:55.877Z,1.90
2018-08-13T04:43:24.307Z,1.83
2018-08-13T04:45:52.760Z,1.70
2018-08-13T04:48:21.219Z,1.53
2018-08-13T04:50:49.642Z,1.70
2018-08-13T04:53:18.048Z,2.10
2018-08-13T04:55:46.447Z,1.87
2018-08-13T04:58:14.868Z,2.57
2018-08-13T05:00:43.378Z,1.70
2018-08-13T05:03:11.829Z,1.80
2018-08-13T05:05:40.771Z,1.63
2018-08-13T05:08:09.216Z,2.10
2018-08-13T05:10:37.749Z,1.70
2018-08-13T05:13:06.244Z,1.50
2018-08-13T05:15:34.782Z,1.93
2018-08-13T05:18:03.319Z,2.40
2018-08-13T05:20:31.860Z,2.10
2018-08-13T05:23:00.244Z,1.83
2018-08-13T05:25:28.676Z,1.90
2018-08-13T05:27:57.166Z,1.80
2018-08-13T05:30:25.709Z,1.87
2018-08-13T05:32:55.324Z,1.77
2018-08-13T05:35:23.701Z,2.20
2018-08-13T05:37:52.106Z,1.67
2018-08-13T05:40:20.442Z,2.00
2018-08-13T05:42:48.832Z,1.90
2018-08-13T05:45:17.245Z,1.97
2018-08-13T05:47:45.719Z,1.80
2018-08-13T05:50:14.142Z,2.13
2018-08-13T05:52:42.486Z,1.90
2018-08-13T05:55:11.055Z,1.90
2018-08-13T05:57:39.495Z,1.60
2018-08-13T06:00:10.390Z,2.20
2018-08-13T06:02:40.335Z,1.70
2018-08-13T06:05:09.209Z,1.80
2018-08-13T06:07:37.835Z,1.57
2018-08-13T06:10:07.699Z,2.17
2018-08-13T06:12:36.095Z,2.20
2018-08-13T06:15:06.570Z,1.80
2018-08-13T06:17:34.975Z,1.90
2018-08-13T06:20:03.569Z,2.00
2018-08-13T06:22:31.903Z,2.13
2018-08-13T06:25:00.310Z,1.93
2018-08-13T06:27:28.749Z,1.90
2018-08-13T06:29:57.119Z,1.80
2018-08-13T06:32:25.519Z,1.80
2018-08-13T06:34:53.953Z,1.83
2018-08-13T06:37:22.399Z,1.90
2018-08-13T06:39:50.773Z,2.33
2018-08-13T06:42:19.179Z,2.03
2018-08-13T06:44:47.531Z,1.70
2018-08-13T06:47:15.992Z,1.90
2018-08-13T06:49:44.487Z,1.80
2018-08-13T06:52:12.891Z,1.77
2018-08-13T06:54:41.531Z,1.93
2018-08-13T06:57:09.918Z,2.03
2018-08-13T06:59:38.325Z,1.87
2018-08-13T07:02:06.736Z,1.80
2018-08-13T07:04:35.115Z,1.70
2018-08-13T07:07:03.706Z,1.93
2018-08-13T07:09:32.083Z,1.97
2018-08-13T07:12:00.520Z,1.77
2018-08-13T07:14:28.857Z,1.40
2018-08-13T07:16:57.240Z,1.70
2018-08-13T07:19:25.692Z,1.80
2018-08-13T07:21:54.046Z,1.80
2018-08-13T07:24:22.483Z,1.60
2018-08-13T07:26:50.935Z,1.47
2018-08-13T07:29:19.326Z,1.30
2018-08-13T07:31:47.690Z,1.60
2018-08-13T07:34:16.205Z,1.30
2018-08-13T07:36:44.542Z,1.50
2018-08-13T07:39:13.115Z,1.40
2018-08-13T07:41:41.497Z,1.70
2018-08-13T07:44:09.915Z,1.43
2018-08-13T07:46:38.406Z,1.50
2018-08-13T07:49:06.822Z,1.30
2018-08-13T07:51:35.201Z,1.37
2018-08-13T07:54:03.636Z,1.50
2018-08-13T07:56:32.092Z,1.30
2018-08-13T07:59:00.522Z,1.40
2018-08-13T08:01:28.910Z,1.90
2018-08-13T08:03:57.289Z,1.70
2018-08-13T08:06:25.688Z,2.00
2018-08-13T08:08:54.111Z,1.55
2018-08-13T08:11:22.551Z,2.47
2018-08-13T08:13:50.951Z,2.00
2018-08-13T08:16:19.377Z,1.57
2018-08-13T08:18:47.790Z,1.72
2018-08-13T08:21:16.157Z,1.70
2018-08-13T08:23:44.575Z,1.70
2018-08-13T08:26:13.009Z,1.30
2018-08-13T08:28:41.395Z,1.60
2018-08-13T08:31:09.823Z,1.62
2018-08-13T08:33:38.202Z,1.60
2018-08-13T08:36:07.059Z,1.32
2018-08-13T08:38:35.463Z,1.45
2018-08-13T08:41:03.896Z,1.32
2018-08-13T08:43:32.335Z,1.40
2018-08-13T08:46:00.858Z,1.30
2018-08-13T08:48:29.276Z,1.30
2018-08-13T08:50:57.695Z,1.30
2018-08-13T08:53:26.121Z,1.37
2018-08-13T08:55:54.563Z,1.25
2018-08-13T08:58:22.944Z,1.22
2018-08-13T09:00:51.312Z,1.20
2018-08-13T09:03:19.683Z,1.30
2018-08-13T09:05:48.147Z,1.10
2018-08-13T09:08:16.462Z,1.10
2018-08-13T09:10:44.852Z,1.20
2018-08-13T09:13:13.245Z,0.80
2018-08-13T09:15:41.638Z,1.47
2018-08-13T09:18:21.323Z,1.20
2018-08-13T09:21:00.792Z,1.50
2018-08-13T09:23:40.443Z,1.52
2018-08-13T09:26:20.156Z,1.50
2018-08-13T09:28:59.714Z,1.30
2018-08-13T09:31:39.289Z,1.40
2018-08-13T09:34:19.018Z,1.60
2018-08-13T09:36:47.569Z,1.17
2018-08-13T09:39:15.938Z,1.50
2018-08-13T09:41:44.339Z,1.37
2018-08-13T09:44:12.739Z,1.00
2018-08-13T09:46:41.163Z,1.15
2018-08-13T09:49:09.562Z,1.30
2018-08-13T09:51:37.861Z,1.17
2018-08-13T09:54:06.241Z,1.20
2018-08-13T09:56:34.662Z,1.00
2018-08-13T09:59:03.079Z,1.00
2018-08-13T10:01:31.465Z,1.15
2018-08-13T10:03:59.924Z,1.30
2018-08-13T10:06:28.294Z,1.15
2018-08-13T10:08:56.701Z,1.27
2018-08-13T10:11:25.095Z,1.25
2018-08-13T10:13:53.498Z,1.20
2018-08-13T10:16:21.811Z,1.30
2018-08-13T10:18:50.235Z,1.10
2018-08-13T10:21:18.639Z,1.10
2018-08-13T10:23:46.991Z,1.32
2018-08-13T10:26:15.387Z,1.22
2018-08-13T10:28:43.767Z,1.15
2018-08-13T10:31:12.159Z,1.02
2018-08-13T10:33:40.583Z,1.30
2018-08-13T10:36:09.409Z,1.25
2018-08-13T10:38:37.847Z,0.93
2018-08-13T10:41:06.239Z,1.05
2018-08-13T10:43:34.797Z,1.10
2018-08-13T10:46:03.166Z,1.20
2018-08-13T10:48:31.557Z,1.30
2018-08-13T10:50:59.977Z,1.10
2018-08-13T10:53:28.448Z,1.25
2018-08-13T10:55:56.879Z,1.02
2018-08-13T10:58:25.275Z,1.00
2018-08-13T11:00:53.675Z,1.00
2018-08-13T11:03:22.085Z,1.20
2018-08-13T11:05:50.468Z,1.20
2018-08-13T11:08:18.912Z,1.30
2018-08-13T11:10:47.320Z,1.05
2018-08-13T11:13:15.732Z,1.30
2018-08-13T11:15:44.108Z,1.00
2018-08-13T11:18:12.556Z,1.10
2018-08-13T11:20:40.960Z,1.32
2018-08-13T11:23:09.380Z,1.30
2018-08-13T11:25:37.843Z,1.40
2018-08-13T11:28:06.416Z,1.05
2018-08-13T11:30:34.738Z,1.05
2018-08-13T11:33:03.169Z,1.10
2018-08-13T11:35:31.538Z,1.10
2018-08-13T11:37:59.972Z,1.10
2018-08-13T11:40:28.323Z,1.05
2018-08-13T11:42:56.815Z,1.05
2018-08-13T11:45:25.160Z,1.45
2018-08-13T11:47:53.530Z,1.20
2018-08-13T11:50:21.998Z,1.30
2018-08-13T11:52:51.346Z,1.30
2018-08-13T11:55:20.424Z,1.30
2018-08-13T11:57:49.846Z,1.67
2018-08-13T12:00:18.655Z,1.72
2018-08-13T12:02:47.031Z,1.20
2018-08-13T12:05:16.209Z,1.25
2018-08-13T12:07:45.179Z,1.37
2018-08-13T12:10:14.081Z,1.60
2018-08-13T12:12:43.075Z,1.60
2018-08-13T12:15:12.373Z,1.65
2018-08-13T12:17:41.231Z,1.57
2018-08-13T12:20:19.271Z,1.20
2018-08-13T12:22:48.035Z,1.30
2018-08-13T12:25:23.228Z,1.22
2018-08-13T12:27:51.647Z,1.20
2018-08-13T12:30:20.078Z,1.50
2018-08-13T12:32:49.350Z,1.42
2018-08-13T12:35:18.380Z,1.40
2018-08-13T12:37:46.786Z,1.50
2018-08-13T12:40:15.106Z,1.52
2018-08-13T12:42:43.536Z,1.10
2018-08-13T12:45:14.298Z,1.20
2018-08-13T12:47:42.738Z,1.55
2018-08-13T12:50:12.810Z,1.27
2018-08-13T12:52:41.805Z,1.32
2018-08-13T12:55:10.894Z,1.40
2018-08-13T12:57:39.315Z,1.50
2018-08-13T13:00:12.997Z,1.32
2018-08-13T13:02:41.762Z,1.42
2018-08-13T13:05:11.671Z,1.45
2018-08-13T13:07:40.096Z,1.27
2018-08-13T13:10:10.969Z,1.37
2018-08-13T13:12:40.017Z,1.40
2018-08-13T13:15:10.008Z,1.20
2018-08-13T13:17:39.004Z,1.13
2018-08-13T13:20:09.122Z,1.10
2018-08-13T13:22:37.522Z,1.13
2018-08-13T13:25:05.983Z,1.23
2018-08-13T13:27:34.569Z,1.10
2018-08-13T13:30:03.050Z,1.30
2018-08-13T13:32:31.467Z,1.27
2018-08-13T13:34:59.853Z,1.17
2018-08-13T13:37:28.311Z,1.30
2018-08-13T13:39:56.732Z,1.30
2018-08-13T13:42:25.241Z,1.40
2018-08-13T13:44:53.672Z,1.30
2018-08-13T13:47:22.082Z,1.20
2018-08-13T13:49:50.453Z,1.60
2018-08-13T13:52:18.813Z,1.10
2018-08-13T13:54:47.167Z,1.17
2018-08-13T13:57:15.598Z,1.47
2018-08-13T13:59:44.005Z,1.30
2018-08-13T14:02:12.386Z,1.60
2018-08-13T14:04:40.743Z,1.30
2018-08-13T14:07:09.404Z,1.57
2018-08-13T14:09:37.829Z,1.37
2018-08-13T14:12:06.323Z,1.60
2018-08-13T14:14:34.764Z,1.37
2018-08-13T14:17:03.222Z,1.70
2018-08-13T14:19:31.647Z,1.50
2018-08-13T14:22:00.047Z,1.40
2018-08-13T14:24:28.717Z,1.70
2018-08-13T14:26:57.103Z,1.70
2018-08-13T14:29:25.493Z,1.70
2018-08-13T14:31:53.915Z,1.83
2018-08-13T14:34:22.340Z,1.73
2018-08-13T14:36:50.699Z,1.60
2018-08-13T14:39:19.043Z,1.70
2018-08-13T14:41:47.527Z,1.70
2018-08-13T14:44:15.957Z,1.40
2018-08-13T14:46:44.373Z,1.77
2018-08-13T14:49:12.758Z,2.17
2018-08-13T14:51:41.440Z,1.83
2018-08-13T14:54:09.866Z,1.80
2018-08-13T14:56:40.542Z,2.10
2018-08-13T14:59:09.196Z,2.00
2018-08-13T15:01:38.034Z,2.33
2018-08-13T15:04:09.869Z,2.50
2018-08-13T15:06:38.808Z,2.30
2018-08-13T15:09:09.302Z,2.70
2018-08-13T15:11:40.563Z,2.37
2018-08-13T15:14:15.780Z,1.93
2018-08-13T15:16:44.886Z,2.30
2018-08-13T15:19:14.506Z,2.63
2018-08-13T15:21:50.300Z,2.40
2018-08-13T15:24:22.259Z,2.37
2018-08-13T15:27:37.484Z,2.47
2018-08-13T15:30:12.778Z,2.20
2018-08-13T15:32:51.016Z,2.40
2018-08-13T15:35:19.792Z,2.10
2018-08-13T15:37:49.418Z,2.40
2018-08-13T15:40:18.709Z,2.57
2018-08-13T15:42:47.735Z,2.03
2018-08-13T15:45:20.400Z,2.20
2018-08-13T15:47:49.910Z,2.03
2018-08-13T15:50:20.186Z,2.43
2018-08-13T15:52:50.866Z,2.50
2018-08-13T15:55:24.712Z,2.30
2018-08-13T15:57:53.849Z,2.07
2018-08-13T16:00:26.527Z,2.07
2018-08-13T16:02:55.493Z,2.33
2018-08-13T16:05:25.470Z,2.50
2018-08-13T16:07:54.250Z,2.17
2018-08-13T16:10:22.926Z,1.50
2018-08-13T16:12:53.999Z,2.00
2018-08-13T16:15:24.825Z,1.80
2018-08-13T16:17:58.851Z,1.80
2018-08-13T16:20:27.883Z,1.83
2018-08-13T16:22:59.897Z,1.93
2018-08-13T16:25:29.806Z,2.13
2018-08-13T16:27:59.107Z,2.00
2018-08-13T16:30:36.755Z,1.90
2018-08-13T16:33:05.777Z,2.20
2018-08-13T16:35:35.489Z,2.00
2018-08-13T16:38:08.236Z,2.10
2018-08-13T16:40:37.443Z,1.80
2018-08-13T16:43:07.340Z,1.57
2018-08-13T16:45:35.950Z,1.40
2018-08-13T16:48:04.674Z,1.77
2018-08-13T16:50:35.844Z,1.70
2018-08-13T16:53:04.698Z,1.60
2018-08-13T16:55:41.291Z,1.60
2018-08-13T16:58:11.822Z,1.50
2018-08-13T17:00:40.533Z,1.60
2018-08-13T17:03:09.593Z,1.60
2018-08-13T17:05:40.486Z,1.67
2018-08-13T17:08:11.934Z,1.57
2018-08-13T17:10:40.802Z,1.47
2018-08-13T17:13:09.764Z,1.50
2018-08-13T17:15:38.556Z,1.67
2018-08-13T17:18:07.282Z,1.43
2018-08-13T17:20:38.418Z,1.23
2018-08-13T17:23:07.714Z,1.60
2018-08-13T17:25:36.736Z,1.53
2018-08-13T17:28:06.551Z,1.30
2018-08-13T17:30:36.958Z,1.50
2018-08-13T17:33:13.041Z,2.57
2018-08-13T17:42:40.101Z,1.83
2018-08-13T17:45:52.048Z,1.50
2018-08-13T17:48:58.717Z,2.40
2018-08-13T17:51:51.269Z,2.30
2018-08-13T18:00:37.530Z,1.77
2018-08-13T18:03:08.570Z,1.80
2018-08-13T18:05:37.539Z,1.97
2018-08-13T18:08:06.810Z,1.50
2018-08-13T18:10:35.537Z,1.80
2018-08-13T18:13:08.508Z,1.60
2018-08-13T18:15:42.410Z,1.43
2018-08-13T18:18:18.686Z,1.53
2018-08-13T18:20:52.595Z,1.90
2018-08-13T18:23:29.799Z,1.40
2018-08-13T18:25:58.313Z,1.20
2018-08-13T18:28:29.485Z,1.30
2018-08-13T18:30:58.140Z,1.63
2018-08-13T18:33:31.159Z,1.53
2018-08-13T18:38:55.076Z,1.63
2018-08-13T18:41:47.510Z,1.40
2018-08-13T18:51:24.462Z,1.67
2018-08-13T18:53:54.898Z,1.67
2018-08-13T18:56:23.924Z,1.80
2018-08-13T18:58:53.104Z,1.70
2018-08-13T19:01:54.335Z,1.50
2018-08-13T19:04:25.482Z,1.40
2018-08-13T19:06:55.090Z,1.57
2018-08-13T19:09:25.645Z,1.60
2018-08-13T19:12:03.430Z,1.50
2018-08-13T19:14:38.599Z,2.07
2018-08-13T19:17:08.042Z,1.57
2018-08-13T19:19:37.128Z,1.83
2018-08-13T19:22:08.816Z,1.60
2018-08-13T19:24:38.072Z,1.70
2018-08-13T19:27:07.193Z,1.50
2018-08-13T19:29:36.416Z,1.77
2018-08-13T19:32:07.020Z,1.60
2018-08-13T19:34:37.687Z,1.53
2018-08-13T19:37:06.661Z,1.60
2018-08-13T19:39:35.050Z,1.80
2018-08-13T19:42:03.523Z,1.50
2018-08-13T19:44:31.988Z,1.70
2018-08-13T19:47:00.445Z,1.83
2018-08-13T19:49:28.907Z,1.50
2018-08-13T19:51:57.300Z,1.93
2018-08-13T19:54:25.764Z,1.63
2018-08-13T19:56:54.165Z,1.60
2018-08-13T19:59:22.535Z,1.60
2018-08-13T20:01:50.959Z,1.90
2018-08-13T20:04:19.569Z,1.83
2018-08-13T20:06:47.953Z,2.57
2018-08-13T20:09:16.912Z,1.73
2018-08-13T20:11:49.673Z,1.80
2018-08-13T20:14:18.079Z,1.70
2018-08-13T20:16:46.450Z,2.00
2018-08-13T20:19:14.864Z,1.80
2018-08-13T20:21:43.343Z,2.33
2018-08-13T20:24:11.900Z,1.87
2018-08-13T20:26:40.543Z,1.90
2018-08-13T20:29:09.122Z,2.00
2018-08-13T20:31:37.576Z,1.67
2018-08-13T20:34:06.836Z,1.87
2018-08-13T20:36:35.320Z,1.70
2018-08-13T20:39:06.033Z,1.90
2018-08-13T20:41:34.477Z,1.90
2018-08-13T20:44:02.964Z,3.13
2018-08-13T20:46:31.404Z,2.00
2018-08-13T20:48:59.850Z,1.90
2018-08-13T20:51:28.287Z,2.00
2018-08-13T20:53:56.694Z,2.20
2018-08-13T20:56:25.104Z,1.83
2018-08-13T20:58:53.472Z,2.00
2018-08-13T21:01:21.855Z,1.90
2018-08-13T21:03:50.301Z,1.87
2018-08-13T21:06:18.668Z,1.97
2018-08-13T21:08:47.062Z,1.90
2018-08-13T21:11:15.438Z,2.27
2018-08-13T21:13:43.810Z,1.90
2018-08-13T21:16:12.296Z,1.80
2018-08-13T21:18:41.561Z,2.10
2018-08-13T21:21:10.030Z,2.17
2018-08-13T21:23:38.498Z,1.63
2018-08-13T21:26:06.972Z,1.93
2018-08-13T21:28:35.298Z,1.90
2018-08-13T21:31:03.702Z,1.83
2018-08-13T21:33:32.118Z,1.70
2018-08-13T21:36:00.562Z,1.67
2018-08-13T21:38:28.948Z,1.80
2018-08-13T21:40:57.286Z,1.60
2018-08-13T21:43:25.763Z,1.90
2018-08-13T21:45:54.119Z,1.70
2018-08-13T21:48:22.493Z,1.83
2018-08-13T21:50:50.884Z,1.57
2018-08-13T21:53:19.230Z,1.80
2018-08-13T21:55:47.599Z,1.40
2018-08-13T21:58:15.963Z,1.90
2018-08-13T22:00:49.814Z,1.77
2018-08-13T22:03:18.229Z,1.77
2018-08-13T22:05:46.679Z,1.83
2018-08-13T22:08:15.069Z,1.40
2018-08-13T22:10:43.496Z,1.80
2018-08-13T22:13:11.895Z,1.80
2018-08-13T22:15:40.289Z,1.90
2018-08-13T22:18:09.063Z,1.80
2018-08-13T22:20:37.771Z,2.17
2018-08-13T22:23:08.009Z,2.10
2018-08-13T22:25:46.277Z,1.73
2018-08-13T22:28:17.002Z,1.90
2018-08-13T22:30:45.662Z,2.00
2018-08-13T22:33:14.061Z,2.20
2018-08-13T22:35:42.455Z,1.97
2018-08-13T22:38:11.037Z,2.00
2018-08-13T22:40:40.166Z,2.30
2018-08-13T22:43:08.743Z,2.00
2018-08-13T22:45:37.103Z,2.00
2018-08-13T22:48:05.902Z,1.90
2018-08-13T22:50:34.272Z,1.70
2018-08-13T22:53:02.702Z,2.00
2018-08-13T22:55:31.102Z,2.03
2018-08-13T22:57:59.538Z,1.90
2018-08-13T23:00:27.956Z,2.10
2018-08-13T23:02:56.332Z,1.90
2018-08-13T23:05:25.864Z,2.20
2018-08-13T23:07:54.279Z,2.00
2018-08-13T23:10:23.825Z,2.07
2018-08-13T23:12:53.220Z,2.10
2018-08-13T23:15:21.687Z,2.23
2018-08-13T23:17:50.380Z,2.10
2018-08-13T23:20:24.572Z,2.10
2018-08-13T23:22:54.144Z,2.00
2018-08-13T23:25:22.572Z,2.23
2018-08-13T23:27:53.052Z,2.20
2018-08-13T23:30:21.488Z,2.30
2018-08-13T23:32:51.119Z,2.30
2018-08-13T23:35:20.416Z,2.17
2018-08-13T23:37:49.092Z,2.23
2018-08-13T23:40:17.532Z,2.63
2018-08-13T23:42:46.135Z,2.07
2018-08-13T23:45:17.736Z,2.30
2018-08-13T23:47:46.156Z,1.80
2018-08-13T23:50:18.471Z,1.97
2018-08-13T23:52:47.662Z,1.73
2018-08-13T23:55:20.234Z,1.70
2018-08-13T23:57:48.633Z,1.80
